• Join FlightAware (Why Join?)
  • Login
  • US Flag 
09:13PM EDT


 

Airport Tracker/Info


-or-


 

Live Flight TrackerFlight Track Log ✈ CTL312 ✈ 24-Jul-2013 ✈ KBKL - KHAO

Flight Track Log - Related Links

Times and Time Zones

All times are in EDT time to prevent confusion due to time zone crossing. See the CTL312 flight status page for this flight to view local times or setup timezone preferences in your user account.

Time Position Orientation Groundspeed Altitude Reporting Facility
EDT Latitude Longitude Course Direction KTS MPH feet Rate Location/Type
06:51PM 41.5378 -81.6789 339° North 121 139 1,200  Level Cleveland Center
06:52PM 41.5544 -81.6875 339° North 126 145 2,000 1,380 Climbing Cleveland Center
06:53PM 41.5856 -81.7019 341° North 113 130 3,300 1,140 Climbing Cleveland Center
06:54PM 41.5900 -81.6742 78° East 138 159 4,300 960 Climbing Cleveland Center
06:55PM 41.5653 -81.6350 130° Southeast 129 148 5,300 840 Climbing Cleveland Center
06:56PM 41.5239 -81.6150 160° South 153 176 6,000 360 Climbing Cleveland Center
06:57PM 41.4864 -81.5950 158° South 178 205 6,000  Level Cleveland Center
06:58PM 41.4383 -81.5997 184° South 184 212 6,000  Level Cleveland Center
06:59PM 41.3903 -81.6294 205° Southwest 183 211 6,000  Level Cleveland Center
07:00PM 41.3483 -81.6536 203° Southwest 183 211 6,000  Level Cleveland Center
07:01PM 41.3022 -81.6750 199° South 182 209 6,000  Level Cleveland Center
07:02PM 41.2622 -81.7211 221° Southwest 183 211 6,000  Level Cleveland Center
07:03PM 41.2261 -81.7731 227° Southwest 185 213 6,000  Level Cleveland Center
07:04PM 41.1922 -81.8247 229° Southwest 186 214 6,000  Level Cleveland Center
07:05PM 41.1606 -81.8767 231° Southwest 185 213 6,000  Level Cleveland Center
07:06PM 41.1222 -81.9336 228° Southwest 184 212 6,000 -60 Level Cleveland Center
07:08PM 41.0748 -82.0073 229° Southwest  Level FlightAware Approximate
07:15PM 40.8727 -82.3295 232° Southwest  Level FlightAware Approximate
07:16PM 40.8446 -82.3763 232° Southwest  Level FlightAware Approximate
07:17PM 40.8166 -82.4231 232° Southwest  Level FlightAware Approximate
07:18PM 40.7885 -82.4698 232° Southwest  Level FlightAware Approximate
07:19PM 40.7604 -82.5165 232° Southwest  Level FlightAware Approximate
07:20PM 40.7323 -82.5632 232° Southwest  Level FlightAware Approximate
07:20PM 40.6539 -82.6503 230° Southwest 186 214 5,900  Level Indianapolis Center
07:21PM 40.7041 -82.6098 231° Southwest  Level FlightAware Approximate
07:21PM 40.6200 -82.7017 229° Southwest 185 213 5,900  Level Indianapolis Center
07:22PM 40.6752 -82.6556 230° Southwest  Level FlightAware Approximate
07:22PM 40.5867 -82.7519 229° Southwest 181 208 5,900  Level Indianapolis Center
07:23PM 40.6462 -82.7012 230° Southwest  Level FlightAware Approximate
07:23PM 40.5519 -82.8028 228° Southwest 184 212 5,900  Level Indianapolis Center
07:24PM 40.6171 -82.7468 230° Southwest  Level FlightAware Approximate
07:24PM 40.5192 -82.8547 230° Southwest 183 211 5,900  Level Indianapolis Center
07:25PM 40.5880 -82.7923 230° Southwest  Level FlightAware Approximate
07:25PM 40.4858 -82.9064 230° Southwest 179 206 5,900  Level Indianapolis Center
07:26PM 40.4511 -82.9603 230° Southwest 182 209 5,900  Level Indianapolis Center
07:27PM 40.4144 -83.0147 229° Southwest 183 211 5,900  Level Indianapolis Center
07:28PM 40.3825 -83.0644 230° Southwest 181 208 5,900  Level Indianapolis Center
07:29PM 40.3486 -83.1111 226° Southwest 179 206 5,900  Level Indianapolis Center
07:30PM 40.3147 -83.1578 226° Southwest 178 205 5,900  Level Indianapolis Center
07:31PM 40.2806 -83.2069 228° Southwest 177 204 5,900  Level Indianapolis Center
07:32PM 40.2461 -83.2589 229° Southwest 179 206 5,900  Level Indianapolis Center
07:33PM 40.2142 -83.3058 228° Southwest 177 204 5,900  Level Indianapolis Center
07:34PM 40.1783 -83.3583 228° Southwest 176 203 5,900  Level Indianapolis Center
07:35PM 40.1400 -83.4128 227° Southwest 175 201 5,900  Level Indianapolis Center
07:36PM 40.1161 -83.4483 229° Southwest 172 198 5,900  Level Indianapolis Center
07:38PM 40.0783 -83.5078 230° Southwest 171 197 5,900  Level Indianapolis Center
07:38PM 40.0539 -83.5444 229° Southwest 171 197 5,900  Level Indianapolis Center
07:39PM 40.0239 -83.5914 230° Southwest 172 198 6,000 60 Climbing Indianapolis Center
07:40PM 39.9925 -83.6325 225° Southwest 170 196 6,100  Climbing Indianapolis Center
07:41PM 39.9536 -83.6833 225° Southwest 174 200 6,000 -60 Descending Indianapolis Center
07:42PM 39.9192 -83.7319 227° Southwest 176 203 6,000  Level Indianapolis Center
07:43PM 39.8847 -83.7833 229° Southwest 175 201 6,000  Level Indianapolis Center
07:44PM 39.8503 -83.8319 227° Southwest 172 198 6,100  Climbing Indianapolis Center
07:45PM 39.8181 -83.8783 228° Southwest 173 199 6,000 -240 Descending Indianapolis Center
07:47PM 39.7811 -83.9292 227° Southwest 180 207 5,700 -420 Descending Indianapolis Center
07:47PM 39.7494 -83.9728 227° Southwest 187 215 5,200 -660 Descending Indianapolis Center
07:49PM 39.7047 -84.0372 228° Southwest 188 216 4,300 -540 Descending Indianapolis Center
07:50PM 39.6678 -84.0867 226° Southwest 190 219 4,000 -180 Descending Indianapolis Center
07:51PM 39.6264 -84.1406 225° Southwest 184 212 4,000  Level Indianapolis Center
07:52PM 39.5928 -84.1869 227° Southwest 179 206 4,000  Level Indianapolis Center
07:53PM 39.5592 -84.2339 227° Southwest 177 204 4,000 -60 Level Indianapolis Center
07:54PM 39.5239 -84.2794 225° Southwest 176 203 3,900 -180 Descending Indianapolis Center
07:55PM 39.4897 -84.3319 230° Southwest 183 211 3,700 -180 Descending Indianapolis Center
07:56PM 39.4578 -84.3842 232° Southwest 185 213 3,600 -120 Descending Indianapolis Center
07:58PM 39.4084 -84.4416 218° Southwest  Level FlightAware Approximate
08:05PM 39.3500 -84.5167 229° Southwest  Level FlightAware Approximate
08:06PM 39.3638 -84.5219 229° Southwest  Level Estimated
08:07PM 39.3638 -84.5219 229° Southwest  Level Estimated